sensor_id;sensor_type;location;lat;lon;timestamp;P1;durP1;ratioP1;P2;durP2;ratioP2
15498;SDS011;7851;52.260;6.030;2022-09-03T00:02:35;3.3;;;2.1;;
15498;SDS011;7851;52.260;6.030;2022-09-03T00:02:35;2.5;;;2.1;;
15498;SDS011;7851;52.260;6.030;2022-09-03T00:02:35;2.5;;;2;;
15498;SDS011;7851;52.260;6.030;2022-09-03T00:03:03;2.3;;;2.1;;
15498;SDS011;7851;52.260;6.030;2022-09-03T00:04:04;2.3;;;2;;
15498;SDS011;7851;52.260;6.030;2022-09-03T00:05:04;4.3;;;2.3;;
15498;SDS011;7851;52.260;6.030;2022-09-03T00:06:07;3.2;;;2.1;;
15498;SDS011;7851;52.260;6.030;2022-09-03T00:07:05;2.9;;;2.3;;
15498;SDS011;7851;52.260;6.030;2022-09-03T00:08:05;2.8;;;2.2;;
15498;SDS011;7851;52.260;6.030;2022-09-03T00:09:04;2.2;;;2;;
15498;SDS011;7851;52.260;6.030;2022-09-03T00:10:04;2.3;;;2.1;;
15498;SDS011;7851;52.260;6.030;2022-09-03T00:11:06;2;;;1.9;;
15498;SDS011;7851;52.260;6.030;2022-09-03T00:12:06;2.1;;;2;;
15498;SDS011;7851;52.260;6.030;2022-09-03T00:13:04;2;;;1.9;;
15498;SDS011;7851;52.260;6.030;2022-09-03T00:14:04;2.5;;;2.1;;
15498;SDS011;7851;52.260;6.030;2022-09-03T00:15:06;3.7;;;2.2;;
15498;SDS011;7851;52.260;6.030;2022-09-03T00:16:05;2.4;;;2.2;;
15498;SDS011;7851;52.260;6.030;2022-09-03T00:17:04;7;;;2.4;;
15498;SDS011;7851;52.260;6.030;2022-09-03T00:18:05;2.5;;;2;;
15498;SDS011;7851;52.260;6.030;2022-09-03T00:19:04;2.3;;;2.1;;
15498;SDS011;7851;52.260;6.030;2022-09-03T00:20:05;2.6;;;2.3;;
15498;SDS011;7851;52.260;6.030;2022-09-03T00:21:06;2;;;1.9;;
15498;SDS011;7851;52.260;6.030;2022-09-03T00:22:04;3.6;;;2.4;;
15498;SDS011;7851;52.260;6.030;2022-09-03T00:23:05;2.3;;;2.1;;
15498;SDS011;7851;52.260;6.030;2022-09-03T00:24:05;2.9;;;2.4;;
15498;SDS011;7851;52.260;6.030;2022-09-03T00:25:05;3.4;;;2.3;;
15498;SDS011;7851;52.260;6.030;2022-09-03T00:26:06;2.6;;;2.3;;
15498;SDS011;7851;52.260;6.030;2022-09-03T00:27:05;2.2;;;2;;
15498;SDS011;7851;52.260;6.030;2022-09-03T00:28:05;2.5;;;2.3;;
15498;SDS011;7851;52.260;6.030;2022-09-03T00:29:06;2.1;;;1.9;;
15498;SDS011;7851;52.260;6.030;2022-09-03T00:30:06;2.4;;;2.3;;
15498;SDS011;7851;52.260;6.030;2022-09-03T00:31:06;2.8;;;2;;
15498;SDS011;7851;52.260;6.030;2022-09-03T00:32:06;2.5;;;2.3;;
15498;SDS011;7851;52.260;6.030;2022-09-03T00:33:05;3.6;;;2.3;;
15498;SDS011;7851;52.260;6.030;2022-09-03T00:34:06;3.2;;;2.1;;
15498;SDS011;7851;52.260;6.030;2022-09-03T00:35:05;2.4;;;2.2;;
15498;SDS011;7851;52.260;6.030;2022-09-03T00:36:05;4.1;;;2.2;;
15498;SDS011;7851;52.260;6.030;2022-09-03T00:37:04;3.1;;;2.2;;
15498;SDS011;7851;52.260;6.030;2022-09-03T00:38:04;2.4;;;2.2;;
15498;SDS011;7851;52.260;6.030;2022-09-03T00:39:04;2.5;;;2.3;;
15498;SDS011;7851;52.260;6.030;2022-09-03T00:40:06;5.7;;;2.3;;
15498;SDS011;7851;52.260;6.030;2022-09-03T00:41:06;2.5;;;2.3;;
15498;SDS011;7851;52.260;6.030;2022-09-03T00:42:09;3.8;;;2.2;;
15498;SDS011;7851;52.260;6.030;2022-09-03T00:43:06;4;;;2.2;;
15498;SDS011;7851;52.260;6.030;2022-09-03T00:44:11;2.7;;;2.5;;
15498;SDS011;7851;52.260;6.030;2022-09-03T00:45:08;2.6;;;2.1;;
15498;SDS011;7851;52.260;6.030;2022-09-03T00:46:05;2.3;;;2.1;;
15498;SDS011;7851;52.260;6.030;2022-09-03T00:47:07;2.6;;;2.4;;
15498;SDS011;7851;52.260;6.030;2022-09-03T00:48:09;4.7;;;2.3;;
15498;SDS011;7851;52.260;6.030;2022-09-03T00:49:09;2.4;;;2.2;;
15498;SDS011;7851;52.260;6.030;2022-09-03T00:50:06;2.6;;;2.4;;
15498;SDS011;7851;52.260;6.030;2022-09-03T00:51:07;2.4;;;2.3;;
15498;SDS011;7851;52.260;6.030;2022-09-03T00:52:06;2.6;;;2.4;;
15498;SDS011;7851;52.260;6.030;2022-09-03T00:53:06;2.5;;;2.1;;
15498;SDS011;7851;52.260;6.030;2022-09-03T00:54:05;2.5;;;2.3;;
15498;SDS011;7851;52.260;6.030;2022-09-03T00:55:06;2;;;1.9;;
15498;SDS011;7851;52.260;6.030;2022-09-03T00:56:07;4.2;;;2.5;;
15498;SDS011;7851;52.260;6.030;2022-09-03T00:57:08;2.5;;;2.3;;
15498;SDS011;7851;52.260;6.030;2022-09-03T00:58:24;2.8;;;2.6;;
15498;SDS011;7851;52.260;6.030;2022-09-03T00:59:07;3.1;;;2.4;;
15498;SDS011;7851;52.260;6.030;2022-09-03T01:00:07;2.7;;;2.2;;
15498;SDS011;7851;52.260;6.030;2022-09-03T01:01:05;2.6;;;2.4;;
15498;SDS011;7851;52.260;6.030;2022-09-03T01:02:06;4.2;;;2.6;;
15498;SDS011;7851;52.260;6.030;2022-09-03T01:03:05;2.8;;;2.6;;
15498;SDS011;7851;52.260;6.030;2022-09-03T01:04:07;2.8;;;2.4;;
15498;SDS011;7851;52.260;6.030;2022-09-03T01:05:06;3.9;;;2.4;;
15498;SDS011;7851;52.260;6.030;2022-09-03T01:06:07;2.4;;;2.2;;
15498;SDS011;7851;52.260;6.030;2022-09-03T01:07:06;3;;;2.4;;
15498;SDS011;7851;52.260;6.030;2022-09-03T01:08:07;3;;;2.7;;
15498;SDS011;7851;52.260;6.030;2022-09-03T01:09:07;2.5;;;2.4;;
15498;SDS011;7851;52.260;6.030;2022-09-03T01:10:08;2.9;;;2.6;;
15498;SDS011;7851;52.260;6.030;2022-09-03T01:11:07;4.4;;;2.8;;
15498;SDS011;7851;52.260;6.030;2022-09-03T01:12:05;9.4;;;2.8;;
15498;SDS011;7851;52.260;6.030;2022-09-03T01:13:05;2.8;;;2.6;;
15498;SDS011;7851;52.260;6.030;2022-09-03T01:14:08;2.5;;;2.3;;
15498;SDS011;7851;52.260;6.030;2022-09-03T01:15:07;3.5;;;2.5;;
15498;SDS011;7851;52.260;6.030;2022-09-03T01:16:07;3;;;2.5;;
15498;SDS011;7851;52.260;6.030;2022-09-03T01:17:06;4.5;;;2.4;;
15498;SDS011;7851;52.260;6.030;2022-09-03T01:18:08;2.9;;;2.7;;
15498;SDS011;7851;52.260;6.030;2022-09-03T01:19:06;2.5;;;2.4;;
15498;SDS011;7851;52.260;6.030;2022-09-03T01:20:13;3.4;;;2.7;;
15498;SDS011;7851;52.260;6.030;2022-09-03T01:21:10;6.1;;;2.9;;
15498;SDS011;7851;52.260;6.030;2022-09-03T01:22:10;3.1;;;2.8;;
15498;SDS011;7851;52.260;6.030;2022-09-03T01:24:11;4.7;;;2.8;;
15498;SDS011;7851;52.260;6.030;2022-09-03T01:25:07;2.6;;;2.4;;
15498;SDS011;7851;52.260;6.030;2022-09-03T01:26:09;3;;;2.8;;
15498;SDS011;7851;52.260;6.030;2022-09-03T01:27:08;2.7;;;2.4;;
15498;SDS011;7851;52.260;6.030;2022-09-03T01:28:09;4;;;2.6;;
15498;SDS011;7851;52.260;6.030;2022-09-03T01:29:08;4.3;;;2.7;;
15498;SDS011;7851;52.260;6.030;2022-09-03T01:30:06;4.3;;;2.4;;
15498;SDS011;7851;52.260;6.030;2022-09-03T01:31:05;5.3;;;2.6;;
15498;SDS011;7851;52.260;6.030;2022-09-03T01:32:05;2.6;;;2.4;;
15498;SDS011;7851;52.260;6.030;2022-09-03T01:33:06;2.7;;;2.5;;
15498;SDS011;7851;52.260;6.030;2022-09-03T01:34:09;3;;;2.6;;
15498;SDS011;7851;52.260;6.030;2022-09-03T01:35:06;4.2;;;2.6;;
15498;SDS011;7851;52.260;6.030;2022-09-03T01:36:06;5.1;;;2.5;;
15498;SDS011;7851;52.260;6.030;2022-09-03T01:37:06;3.3;;;2.6;;
15498;SDS011;7851;52.260;6.030;2022-09-03T01:38:08;2.9;;;2.7;;
15498;SDS011;7851;52.260;6.030;2022-09-03T01:39:04;3.3;;;2.9;;
15498;SDS011;7851;52.260;6.030;2022-09-03T01:40:06;2.8;;;2.6;;
15498;SDS011;7851;52.260;6.030;2022-09-03T01:41:05;3.5;;;3.2;;
15498;SDS011;7851;52.260;6.030;2022-09-03T01:42:08;2.8;;;2.5;;
15498;SDS011;7851;52.260;6.030;2022-09-03T01:43:11;2.9;;;2.7;;
15498;SDS011;7851;52.260;6.030;2022-09-03T01:44:06;3;;;2.8;;
15498;SDS011;7851;52.260;6.030;2022-09-03T01:45:08;5.9;;;2.7;;
15498;SDS011;7851;52.260;6.030;2022-09-03T01:46:05;2.9;;;2.7;;
15498;SDS011;7851;52.260;6.030;2022-09-03T01:47:05;2.6;;;2.4;;
15498;SDS011;7851;52.260;6.030;2022-09-03T01:48:08;3.1;;;2.8;;
15498;SDS011;7851;52.260;6.030;2022-09-03T01:49:05;3.3;;;2.4;;
15498;SDS011;7851;52.260;6.030;2022-09-03T01:50:05;4.1;;;2.7;;
15498;SDS011;7851;52.260;6.030;2022-09-03T01:51:06;2.7;;;2.5;;
15498;SDS011;7851;52.260;6.030;2022-09-03T01:52:05;2.9;;;2.6;;
15498;SDS011;7851;52.260;6.030;2022-09-03T01:53:06;3;;;2.7;;
15498;SDS011;7851;52.260;6.030;2022-09-03T01:54:12;2.9;;;2.5;;
15498;SDS011;7851;52.260;6.030;2022-09-03T01:55:05;2.5;;;2.4;;
15498;SDS011;7851;52.260;6.030;2022-09-03T01:56:10;2.6;;;2.4;;
15498;SDS011;7851;52.260;6.030;2022-09-03T01:58:04;3.4;;;2.7;;
15498;SDS011;7851;52.260;6.030;2022-09-03T01:59:05;3.7;;;2.4;;
15498;SDS011;7851;52.260;6.030;2022-09-03T02:00:07;2.7;;;2.5;;
15498;SDS011;7851;52.260;6.030;2022-09-03T02:01:04;2.6;;;2.4;;
15498;SDS011;7851;52.260;6.030;2022-09-03T02:02:04;3.2;;;2.8;;
15498;SDS011;7851;52.260;6.030;2022-09-03T02:03:05;2.5;;;2.3;;
15498;SDS011;7851;52.260;6.030;2022-09-03T02:04:13;4.1;;;2.8;;
15498;SDS011;7851;52.260;6.030;2022-09-03T02:05:07;6.7;;;2.7;;
15498;SDS011;7851;52.260;6.030;2022-09-03T02:06:04;2.7;;;2.5;;
15498;SDS011;7851;52.260;6.030;2022-09-03T02:07:04;2.5;;;2.3;;
15498;SDS011;7851;52.260;6.030;2022-09-03T02:08:04;3.4;;;2.3;;
15498;SDS011;7851;52.260;6.030;2022-09-03T02:09:04;2.8;;;2.5;;
15498;SDS011;7851;52.260;6.030;2022-09-03T02:10:05;3.3;;;2.2;;
15498;SDS011;7851;52.260;6.030;2022-09-03T02:11:04;2.9;;;2.6;;
15498;SDS011;7851;52.260;6.030;2022-09-03T02:12:05;3.1;;;2.6;;
15498;SDS011;7851;52.260;6.030;2022-09-03T02:13:05;4.9;;;2.8;;
15498;SDS011;7851;52.260;6.030;2022-09-03T02:14:04;2.5;;;2.3;;
15498;SDS011;7851;52.260;6.030;2022-09-03T02:15:05;2.7;;;2.6;;
15498;SDS011;7851;52.260;6.030;2022-09-03T02:16:06;2.5;;;2.3;;
15498;SDS011;7851;52.260;6.030;2022-09-03T02:17:04;3;;;2.8;;
15498;SDS011;7851;52.260;6.030;2022-09-03T02:18:05;3;;;2.6;;
15498;SDS011;7851;52.260;6.030;2022-09-03T02:19:05;3.9;;;2.7;;
15498;SDS011;7851;52.260;6.030;2022-09-03T02:20:06;7.5;;;2.8;;
15498;SDS011;7851;52.260;6.030;2022-09-03T02:21:04;2.7;;;2.5;;
15498;SDS011;7851;52.260;6.030;2022-09-03T02:22:04;3.2;;;2.9;;
15498;SDS011;7851;52.260;6.030;2022-09-03T02:23:04;4.2;;;2.7;;
15498;SDS011;7851;52.260;6.030;2022-09-03T02:24:05;2.4;;;2.3;;
15498;SDS011;7851;52.260;6.030;2022-09-03T02:25:04;3.4;;;2.8;;
15498;SDS011;7851;52.260;6.030;2022-09-03T02:26:04;2.8;;;2.6;;
15498;SDS011;7851;52.260;6.030;2022-09-03T02:27:04;2.9;;;2.7;;
15498;SDS011;7851;52.260;6.030;2022-09-03T02:28:04;5.8;;;2.5;;
15498;SDS011;7851;52.260;6.030;2022-09-03T02:29:04;6.6;;;2.7;;
15498;SDS011;7851;52.260;6.030;2022-09-03T02:30:06;2.3;;;2.1;;
15498;SDS011;7851;52.260;6.030;2022-09-03T02:31:04;2.8;;;2.6;;
15498;SDS011;7851;52.260;6.030;2022-09-03T02:32:04;2.2;;;2.1;;
15498;SDS011;7851;52.260;6.030;2022-09-03T02:33:04;2.5;;;2.3;;
15498;SDS011;7851;52.260;6.030;2022-09-03T02:34:04;2.2;;;2.1;;
15498;SDS011;7851;52.260;6.030;2022-09-03T02:35:04;3.9;;;2.6;;
15498;SDS011;7851;52.260;6.030;2022-09-03T02:36:05;2.4;;;2.2;;
15498;SDS011;7851;52.260;6.030;2022-09-03T02:37:10;2.7;;;2.5;;
15498;SDS011;7851;52.260;6.030;2022-09-03T02:38:11;2.3;;;2.2;;
15498;SDS011;7851;52.260;6.030;2022-09-03T02:39:04;4.1;;;2.3;;
15498;SDS011;7851;52.260;6.030;2022-09-03T02:40:04;3.7;;;2.6;;
15498;SDS011;7851;52.260;6.030;2022-09-03T02:41:04;2.8;;;2.5;;
15498;SDS011;7851;52.260;6.030;2022-09-03T02:42:04;2.6;;;2.4;;
15498;SDS011;7851;52.260;6.030;2022-09-03T02:43:04;7.9;;;2.7;;
15498;SDS011;7851;52.260;6.030;2022-09-03T02:44:05;2.5;;;2.3;;
15498;SDS011;7851;52.260;6.030;2022-09-03T02:45:06;3.1;;;2.8;;
15498;SDS011;7851;52.260;6.030;2022-09-03T02:46:04;2.7;;;2.5;;
15498;SDS011;7851;52.260;6.030;2022-09-03T02:47:05;2.7;;;2.3;;
15498;SDS011;7851;52.260;6.030;2022-09-03T02:48:04;2.6;;;2.4;;
15498;SDS011;7851;52.260;6.030;2022-09-03T02:49:04;3.3;;;2.4;;
15498;SDS011;7851;52.260;6.030;2022-09-03T02:50:04;2.8;;;2.5;;
15498;SDS011;7851;52.260;6.030;2022-09-03T02:51:05;2.5;;;2.3;;
15498;SDS011;7851;52.260;6.030;2022-09-03T02:52:05;3.4;;;2.4;;
15498;SDS011;7851;52.260;6.030;2022-09-03T02:53:04;2.9;;;2.5;;
15498;SDS011;7851;52.260;6.030;2022-09-03T02:54:04;4.8;;;2.5;;
15498;SDS011;7851;52.260;6.030;2022-09-03T02:55:04;2.3;;;2.2;;
15498;SDS011;7851;52.260;6.030;2022-09-03T02:56:04;2.9;;;2.6;;
15498;SDS011;7851;52.260;6.030;2022-09-03T02:57:04;2.7;;;2.5;;
15498;SDS011;7851;52.260;6.030;2022-09-03T02:58:04;2.7;;;2.5;;
15498;SDS011;7851;52.260;6.030;2022-09-03T02:59:04;2.8;;;2.4;;
15498;SDS011;7851;52.260;6.030;2022-09-03T03:00:08;3.2;;;2.6;;
15498;SDS011;7851;52.260;6.030;2022-09-03T03:01:04;3.3;;;2.3;;
15498;SDS011;7851;52.260;6.030;2022-09-03T03:02:04;2.6;;;2.4;;
15498;SDS011;7851;52.260;6.030;2022-09-03T03:03:04;7.1;;;2.7;;
15498;SDS011;7851;52.260;6.030;2022-09-03T03:04:04;3.5;;;2.3;;
15498;SDS011;7851;52.260;6.030;2022-09-03T03:05:04;2.8;;;2.6;;
15498;SDS011;7851;52.260;6.030;2022-09-03T03:06:04;3.1;;;2.8;;
15498;SDS011;7851;52.260;6.030;2022-09-03T03:07:04;2.9;;;2.7;;
15498;SDS011;7851;52.260;6.030;2022-09-03T03:08:04;2.9;;;2.7;;
15498;SDS011;7851;52.260;6.030;2022-09-03T03:09:04;2.6;;;2.4;;
15498;SDS011;7851;52.260;6.030;2022-09-03T03:10:04;2.8;;;2.4;;
15498;SDS011;7851;52.260;6.030;2022-09-03T03:11:04;4.5;;;2.5;;
15498;SDS011;7851;52.260;6.030;2022-09-03T03:12:04;2.9;;;2.6;;
15498;SDS011;7851;52.260;6.030;2022-09-03T03:13:04;4.2;;;2.8;;
15498;SDS011;7851;52.260;6.030;2022-09-03T03:14:04;2.4;;;2.2;;
15498;SDS011;7851;52.260;6.030;2022-09-03T03:15:04;3.3;;;2.6;;
15498;SDS011;7851;52.260;6.030;2022-09-03T03:16:04;2.4;;;2.2;;
15498;SDS011;7851;52.260;6.030;2022-09-03T03:17:04;2.8;;;2.6;;
15498;SDS011;7851;52.260;6.030;2022-09-03T03:18:05;2.5;;;2.3;;
15498;SDS011;7851;52.260;6.030;2022-09-03T03:19:04;4.3;;;2.8;;
15498;SDS011;7851;52.260;6.030;2022-09-03T03:20:04;2.9;;;2.7;;
15498;SDS011;7851;52.260;6.030;2022-09-03T03:21:04;2.2;;;2.1;;
15498;SDS011;7851;52.260;6.030;2022-09-03T03:22:04;3.2;;;2.2;;
15498;SDS011;7851;52.260;6.030;2022-09-03T03:23:04;2.7;;;2.5;;
15498;SDS011;7851;52.260;6.030;2022-09-03T03:24:04;2.9;;;2.6;;
15498;SDS011;7851;52.260;6.030;2022-09-03T03:25:04;4.1;;;2.7;;
15498;SDS011;7851;52.260;6.030;2022-09-03T03:26:05;2.7;;;2.4;;
15498;SDS011;7851;52.260;6.030;2022-09-03T03:27:04;2.9;;;2.7;;
15498;SDS011;7851;52.260;6.030;2022-09-03T03:28:04;4.9;;;2.4;;
15498;SDS011;7851;52.260;6.030;2022-09-03T03:29:04;2.6;;;2.4;;
15498;SDS011;7851;52.260;6.030;2022-09-03T03:30:05;5.1;;;2.6;;
15498;SDS011;7851;52.260;6.030;2022-09-03T03:31:04;2.8;;;2.6;;
15498;SDS011;7851;52.260;6.030;2022-09-03T03:32:05;2.9;;;2.7;;
15498;SDS011;7851;52.260;6.030;2022-09-03T03:33:04;2.8;;;2.6;;
15498;SDS011;7851;52.260;6.030;2022-09-03T03:34:04;2.6;;;2.4;;
15498;SDS011;7851;52.260;6.030;2022-09-03T03:35:04;3.2;;;2.9;;
15498;SDS011;7851;52.260;6.030;2022-09-03T03:36:04;2.7;;;2.5;;
15498;SDS011;7851;52.260;6.030;2022-09-03T03:37:04;6.1;;;2.7;;
15498;SDS011;7851;52.260;6.030;2022-09-03T03:38:04;2.7;;;2.5;;
15498;SDS011;7851;52.260;6.030;2022-09-03T03:39:04;2.7;;;2.5;;
15498;SDS011;7851;52.260;6.030;2022-09-03T03:40:04;2.6;;;2.5;;
15498;SDS011;7851;52.260;6.030;2022-09-03T03:41:05;2.6;;;2.4;;
15498;SDS011;7851;52.260;6.030;2022-09-03T03:42:04;2.9;;;2.7;;
15498;SDS011;7851;52.260;6.030;2022-09-03T03:43:04;2.5;;;2.3;;
15498;SDS011;7851;52.260;6.030;2022-09-03T03:44:04;3.3;;;2.9;;
15498;SDS011;7851;52.260;6.030;2022-09-03T03:45:04;2.6;;;2.4;;
15498;SDS011;7851;52.260;6.030;2022-09-03T03:46:04;6.4;;;3;;
15498;SDS011;7851;52.260;6.030;2022-09-03T03:47:04;3.6;;;2.7;;
15498;SDS011;7851;52.260;6.030;2022-09-03T03:48:04;3.4;;;2.8;;
15498;SDS011;7851;52.260;6.030;2022-09-03T03:49:04;3.2;;;2.9;;
15498;SDS011;7851;52.260;6.030;2022-09-03T03:50:05;2.7;;;2.5;;
15498;SDS011;7851;52.260;6.030;2022-09-03T03:51:04;3.7;;;2.8;;
15498;SDS011;7851;52.260;6.030;2022-09-03T03:52:04;2.8;;;2.6;;
15498;SDS011;7851;52.260;6.030;2022-09-03T03:53:04;3;;;2.3;;
15498;SDS011;7851;52.260;6.030;2022-09-03T03:54:04;3.3;;;2.6;;
15498;SDS011;7851;52.260;6.030;2022-09-03T03:55:05;2.8;;;2.6;;
15498;SDS011;7851;52.260;6.030;2022-09-03T03:56:05;3.4;;;3.1;;
15498;SDS011;7851;52.260;6.030;2022-09-03T03:57:04;2.7;;;2.5;;
15498;SDS011;7851;52.260;6.030;2022-09-03T03:58:04;4.8;;;2.9;;
15498;SDS011;7851;52.260;6.030;2022-09-03T03:59:04;2.1;;;2;;
15498;SDS011;7851;52.260;6.030;2022-09-03T04:00:08;5.1;;;3.1;;
15498;SDS011;7851;52.260;6.030;2022-09-03T04:01:04;2.9;;;2.7;;
15498;SDS011;7851;52.260;6.030;2022-09-03T04:02:04;2.8;;;2.6;;
15498;SDS011;7851;52.260;6.030;2022-09-03T04:03:04;6.1;;;2.7;;
15498;SDS011;7851;52.260;6.030;2022-09-03T04:04:04;3.2;;;2.9;;
15498;SDS011;7851;52.260;6.030;2022-09-03T04:05:04;2.6;;;2.4;;
15498;SDS011;7851;52.260;6.030;2022-09-03T04:06:04;2.8;;;2.5;;
15498;SDS011;7851;52.260;6.030;2022-09-03T04:07:04;3;;;2.7;;
15498;SDS011;7851;52.260;6.030;2022-09-03T04:08:04;3.1;;;2.8;;
15498;SDS011;7851;52.260;6.030;2022-09-03T04:09:04;6;;;2.8;;
15498;SDS011;7851;52.260;6.030;2022-09-03T04:10:04;3.3;;;2.9;;
15498;SDS011;7851;52.260;6.030;2022-09-03T04:11:05;3.4;;;3.1;;
15498;SDS011;7851;52.260;6.030;2022-09-03T04:12:04;3.2;;;2.6;;
15498;SDS011;7851;52.260;6.030;2022-09-03T04:13:04;3.3;;;2.9;;
15498;SDS011;7851;52.260;6.030;2022-09-03T04:14:04;4.6;;;2.9;;
15498;SDS011;7851;52.260;6.030;2022-09-03T04:15:04;4.8;;;2.7;;
15498;SDS011;7851;52.260;6.030;2022-09-03T04:16:05;3.5;;;3;;
15498;SDS011;7851;52.260;6.030;2022-09-03T04:17:04;3.2;;;2.9;;
15498;SDS011;7851;52.260;6.030;2022-09-03T04:18:05;3.4;;;2.7;;
15498;SDS011;7851;52.260;6.030;2022-09-03T04:19:04;2.5;;;2.3;;
15498;SDS011;7851;52.260;6.030;2022-09-03T04:20:04;2.7;;;2.5;;
15498;SDS011;7851;52.260;6.030;2022-09-03T04:21:05;3;;;2.7;;
15498;SDS011;7851;52.260;6.030;2022-09-03T04:22:04;2.7;;;2.6;;
15498;SDS011;7851;52.260;6.030;2022-09-03T04:23:04;2.6;;;2.4;;
15498;SDS011;7851;52.260;6.030;2022-09-03T04:24:04;3;;;2.7;;
15498;SDS011;7851;52.260;6.030;2022-09-03T04:25:05;5.2;;;2.9;;
15498;SDS011;7851;52.260;6.030;2022-09-03T04:26:04;3.6;;;2.9;;
15498;SDS011;7851;52.260;6.030;2022-09-03T04:27:04;2.5;;;2.3;;
15498;SDS011;7851;52.260;6.030;2022-09-03T04:28:04;3;;;2.7;;
15498;SDS011;7851;52.260;6.030;2022-09-03T04:29:05;4.8;;;2.7;;
15498;SDS011;7851;52.260;6.030;2022-09-03T04:30:06;12.5;;;3.5;;
15498;SDS011;7851;52.260;6.030;2022-09-03T04:31:04;6.5;;;2.9;;
15498;SDS011;7851;52.260;6.030;2022-09-03T04:32:04;4.4;;;2.8;;
15498;SDS011;7851;52.260;6.030;2022-09-03T04:33:04;15.2;;;3.6;;
15498;SDS011;7851;52.260;6.030;2022-09-03T04:34:04;11.5;;;3.2;;
15498;SDS011;7851;52.260;6.030;2022-09-03T04:35:04;4.5;;;3.3;;
15498;SDS011;7851;52.260;6.030;2022-09-03T04:36:05;14.1;;;2.9;;
15498;SDS011;7851;52.260;6.030;2022-09-03T04:37:05;4.5;;;3.1;;
15498;SDS011;7851;52.260;6.030;2022-09-03T04:38:04;9.8;;;3.6;;
15498;SDS011;7851;52.260;6.030;2022-09-03T04:39:04;3.3;;;2.8;;
15498;SDS011;7851;52.260;6.030;2022-09-03T04:40:05;3.9;;;2.9;;
15498;SDS011;7851;52.260;6.030;2022-09-03T04:41:06;18.7;;;4.5;;
15498;SDS011;7851;52.260;6.030;2022-09-03T04:42:06;4.3;;;2.9;;
15498;SDS011;7851;52.260;6.030;2022-09-03T04:43:04;8.5;;;3.5;;
15498;SDS011;7851;52.260;6.030;2022-09-03T04:44:04;13.1;;;3.6;;
15498;SDS011;7851;52.260;6.030;2022-09-03T04:45:06;13.8;;;3.5;;
15498;SDS011;7851;52.260;6.030;2022-09-03T04:46:05;5.5;;;2.7;;
15498;SDS011;7851;52.260;6.030;2022-09-03T04:47:04;3.2;;;2.7;;
15498;SDS011;7851;52.260;6.030;2022-09-03T04:48:05;2.9;;;2.7;;
15498;SDS011;7851;52.260;6.030;2022-09-03T04:49:04;2.8;;;2.6;;
15498;SDS011;7851;52.260;6.030;2022-09-03T04:50:04;3.3;;;2.7;;
15498;SDS011;7851;52.260;6.030;2022-09-03T04:51:04;7.7;;;2.8;;
15498;SDS011;7851;52.260;6.030;2022-09-03T04:52:04;3.5;;;2.6;;
15498;SDS011;7851;52.260;6.030;2022-09-03T04:53:04;3.3;;;3;;
15498;SDS011;7851;52.260;6.030;2022-09-03T04:54:04;3.5;;;2.9;;
15498;SDS011;7851;52.260;6.030;2022-09-03T04:55:04;3.1;;;2.8;;
15498;SDS011;7851;52.260;6.030;2022-09-03T04:56:10;2.8;;;2.6;;
15498;SDS011;7851;52.260;6.030;2022-09-03T04:57:04;3.4;;;3.1;;
15498;SDS011;7851;52.260;6.030;2022-09-03T04:58:04;3.2;;;2.9;;
15498;SDS011;7851;52.260;6.030;2022-09-03T04:59:04;3.1;;;2.9;;
15498;SDS011;7851;52.260;6.030;2022-09-03T05:00:06;19.7;;;4.6;;
15498;SDS011;7851;52.260;6.030;2022-09-03T05:01:06;20.9;;;4.5;;
15498;SDS011;7851;52.260;6.030;2022-09-03T05:02:04;22.5;;;4.6;;
15498;SDS011;7851;52.260;6.030;2022-09-03T05:03:04;5.4;;;3.5;;
15498;SDS011;7851;52.260;6.030;2022-09-03T05:04:04;4.3;;;3.2;;
15498;SDS011;7851;52.260;6.030;2022-09-03T05:05:04;26.1;;;5.6;;
15498;SDS011;7851;52.260;6.030;2022-09-03T05:06:04;55.5;;;7.6;;
15498;SDS011;7851;52.260;6.030;2022-09-03T05:07:04;23.2;;;4.3;;
15498;SDS011;7851;52.260;6.030;2022-09-03T05:08:04;4.8;;;3.2;;
15498;SDS011;7851;52.260;6.030;2022-09-03T05:09:04;3.7;;;3;;
15498;SDS011;7851;52.260;6.030;2022-09-03T05:10:04;6.8;;;3.1;;
15498;SDS011;7851;52.260;6.030;2022-09-03T05:11:04;3.8;;;3.1;;
15498;SDS011;7851;52.260;6.030;2022-09-03T05:12:04;3.3;;;3;;
15498;SDS011;7851;52.260;6.030;2022-09-03T05:13:04;3.2;;;2.9;;
15498;SDS011;7851;52.260;6.030;2022-09-03T05:14:04;2.8;;;2.6;;
15498;SDS011;7851;52.260;6.030;2022-09-03T05:15:04;2.9;;;2.7;;
15498;SDS011;7851;52.260;6.030;2022-09-03T05:16:05;3.8;;;2.9;;
15498;SDS011;7851;52.260;6.030;2022-09-03T05:17:04;3;;;2.8;;
15498;SDS011;7851;52.260;6.030;2022-09-03T05:18:04;4.2;;;3;;
15498;SDS011;7851;52.260;6.030;2022-09-03T05:19:05;5.4;;;2.9;;
15498;SDS011;7851;52.260;6.030;2022-09-03T05:20:04;5.9;;;2.9;;
15498;SDS011;7851;52.260;6.030;2022-09-03T05:21:04;3.9;;;3.3;;
15498;SDS011;7851;52.260;6.030;2022-09-03T05:22:04;4.5;;;3.2;;
15498;SDS011;7851;52.260;6.030;2022-09-03T05:23:04;3.1;;;2.8;;
15498;SDS011;7851;52.260;6.030;2022-09-03T05:24:04;3.2;;;2.9;;
15498;SDS011;7851;52.260;6.030;2022-09-03T05:25:04;3;;;2.8;;
15498;SDS011;7851;52.260;6.030;2022-09-03T05:26:05;2.9;;;2.6;;
15498;SDS011;7851;52.260;6.030;2022-09-03T05:27:06;3;;;2.8;;
15498;SDS011;7851;52.260;6.030;2022-09-03T05:28:04;4.3;;;3.2;;
15498;SDS011;7851;52.260;6.030;2022-09-03T05:29:04;2.9;;;2.7;;
15498;SDS011;7851;52.260;6.030;2022-09-03T05:30:05;4.2;;;2.8;;
15498;SDS011;7851;52.260;6.030;2022-09-03T05:31:05;2.9;;;2.7;;
15498;SDS011;7851;52.260;6.030;2022-09-03T05:32:04;2.4;;;2.3;;
15498;SDS011;7851;52.260;6.030;2022-09-03T05:33:04;2.9;;;2.7;;
15498;SDS011;7851;52.260;6.030;2022-09-03T05:34:04;3.2;;;3;;
15498;SDS011;7851;52.260;6.030;2022-09-03T05:35:04;5.3;;;3;;
15498;SDS011;7851;52.260;6.030;2022-09-03T05:36:05;3.1;;;2.9;;
15498;SDS011;7851;52.260;6.030;2022-09-03T05:37:04;3.3;;;2.7;;
15498;SDS011;7851;52.260;6.030;2022-09-03T05:38:04;5.9;;;3.2;;
15498;SDS011;7851;52.260;6.030;2022-09-03T05:39:04;3.1;;;2.8;;
15498;SDS011;7851;52.260;6.030;2022-09-03T05:40:04;3.8;;;2.9;;
15498;SDS011;7851;52.260;6.030;2022-09-03T05:41:05;3;;;2.8;;
15498;SDS011;7851;52.260;6.030;2022-09-03T05:42:04;4.2;;;2.8;;
15498;SDS011;7851;52.260;6.030;2022-09-03T05:43:04;3.7;;;2.9;;
15498;SDS011;7851;52.260;6.030;2022-09-03T05:44:04;3.1;;;2.6;;
15498;SDS011;7851;52.260;6.030;2022-09-03T05:45:05;3.3;;;3;;
15498;SDS011;7851;52.260;6.030;2022-09-03T05:46:04;3.6;;;3.3;;
15498;SDS011;7851;52.260;6.030;2022-09-03T05:47:04;3.2;;;3;;
15498;SDS011;7851;52.260;6.030;2022-09-03T05:48:04;4.9;;;2.9;;
15498;SDS011;7851;52.260;6.030;2022-09-03T05:49:04;3.5;;;2.6;;
15498;SDS011;7851;52.260;6.030;2022-09-03T05:50:06;3.6;;;3.3;;
15498;SDS011;7851;52.260;6.030;2022-09-03T05:51:04;2.6;;;2.4;;
15498;SDS011;7851;52.260;6.030;2022-09-03T05:52:04;6;;;3;;
15498;SDS011;7851;52.260;6.030;2022-09-03T05:53:04;3.1;;;2.9;;
15498;SDS011;7851;52.260;6.030;2022-09-03T05:54:04;2.7;;;2.5;;
15498;SDS011;7851;52.260;6.030;2022-09-03T05:55:05;2.9;;;2.7;;
15498;SDS011;7851;52.260;6.030;2022-09-03T05:56:05;2.9;;;2.7;;
15498;SDS011;7851;52.260;6.030;2022-09-03T05:57:05;3.7;;;2.9;;
15498;SDS011;7851;52.260;6.030;2022-09-03T05:58:05;2.7;;;2.5;;
15498;SDS011;7851;52.260;6.030;2022-09-03T05:59:04;2.9;;;2.5;;
15498;SDS011;7851;52.260;6.030;2022-09-03T06:00:07;4.2;;;3;;
15498;SDS011;7851;52.260;6.030;2022-09-03T06:01:08;3.2;;;2.8;;
15498;SDS011;7851;52.260;6.030;2022-09-03T06:02:04;2.8;;;2.6;;
15498;SDS011;7851;52.260;6.030;2022-09-03T06:03:04;2.8;;;2.6;;
15498;SDS011;7851;52.260;6.030;2022-09-03T06:04:05;3.1;;;2.9;;
15498;SDS011;7851;52.260;6.030;2022-09-03T06:05:04;5.6;;;2.7;;
15498;SDS011;7851;52.260;6.030;2022-09-03T06:06:04;4.3;;;2.8;;
15498;SDS011;7851;52.260;6.030;2022-09-03T06:07:04;3.1;;;2.5;;
15498;SDS011;7851;52.260;6.030;2022-09-03T06:08:04;3.5;;;2.7;;
15498;SDS011;7851;52.260;6.030;2022-09-03T06:09:05;5.9;;;3;;
15498;SDS011;7851;52.260;6.030;2022-09-03T06:10:04;2.7;;;2.5;;
15498;SDS011;7851;52.260;6.030;2022-09-03T06:11:04;4.2;;;2.6;;
15498;SDS011;7851;52.260;6.030;2022-09-03T06:12:04;3.3;;;2.8;;
15498;SDS011;7851;52.260;6.030;2022-09-03T06:13:04;3.6;;;2.5;;
15498;SDS011;7851;52.260;6.030;2022-09-03T06:14:04;4.9;;;3;;
15498;SDS011;7851;52.260;6.030;2022-09-03T06:15:04;3.8;;;2.9;;
15498;SDS011;7851;52.260;6.030;2022-09-03T06:16:04;2.6;;;2.4;;
15498;SDS011;7851;52.260;6.030;2022-09-03T06:17:04;3.6;;;2.8;;
15498;SDS011;7851;52.260;6.030;2022-09-03T06:18:04;6.6;;;2.8;;
15498;SDS011;7851;52.260;6.030;2022-09-03T06:19:05;3.3;;;2.8;;
15498;SDS011;7851;52.260;6.030;2022-09-03T06:20:05;4.1;;;2.7;;
15498;SDS011;7851;52.260;6.030;2022-09-03T06:21:05;8.6;;;3.2;;